createdAt,value
2022-07-29T00:01:43.832Z,1.60
2022-07-29T00:04:11.878Z,1.60
2022-07-29T00:06:39.834Z,1.80
2022-07-29T00:09:07.729Z,1.80
2022-07-29T00:11:35.188Z,1.60
2022-07-29T00:14:02.676Z,1.60
2022-07-29T00:16:30.281Z,1.70
2022-07-29T00:19:00.633Z,2.00
2022-07-29T00:21:29.863Z,1.70
2022-07-29T00:23:57.367Z,1.40
2022-07-29T00:26:24.806Z,1.50
2022-07-29T00:28:52.314Z,1.20
2022-07-29T00:31:20.382Z,1.40
2022-07-29T00:33:47.882Z,1.40
2022-07-29T00:36:15.382Z,1.30
2022-07-29T00:38:46.225Z,1.40
2022-07-29T00:41:13.769Z,1.30
2022-07-29T00:43:41.781Z,1.30
2022-07-29T00:46:09.423Z,1.50
2022-07-29T00:48:37.253Z,1.50
2022-07-29T00:51:06.567Z,1.30
2022-07-29T00:53:36.586Z,1.70
2022-07-29T00:56:04.727Z,1.60
2022-07-29T00:58:32.534Z,1.60
2022-07-29T01:01:00.107Z,1.70
2022-07-29T01:03:27.793Z,1.50
2022-07-29T01:05:55.910Z,1.80
2022-07-29T01:08:24.640Z,1.60
2022-07-29T01:10:53.390Z,1.40
2022-07-29T01:13:22.744Z,1.20
2022-07-29T01:16:02.916Z,1.70
2022-07-29T01:18:38.756Z,1.40
2022-07-29T01:21:45.192Z,1.90
2022-07-29T01:24:35.705Z,1.50
2022-07-29T01:27:31.582Z,1.50
2022-07-29T01:30:02.720Z,1.30
2022-07-29T01:32:36.917Z,1.50
2022-07-29T01:35:11.472Z,1.40
2022-07-29T01:37:49.821Z,1.50
2022-07-29T01:40:28.770Z,1.40
2022-07-29T01:42:59.002Z,1.30
2022-07-29T01:45:44.390Z,1.30
2022-07-29T01:48:30.351Z,1.40
2022-07-29T01:51:05.406Z,1.30
2022-07-29T01:54:06.257Z,1.40
2022-07-29T01:56:36.145Z,1.20
2022-07-29T01:59:07.596Z,1.20
2022-07-29T02:01:36.764Z,1.40
2022-07-29T02:04:07.305Z,1.40
2022-07-29T02:06:38.412Z,1.20
2022-07-29T02:09:08.906Z,1.30
2022-07-29T02:11:38.724Z,2.40
2022-07-29T02:14:09.345Z,1.40
2022-07-29T02:16:38.878Z,1.40
2022-07-29T02:19:09.591Z,1.50
2022-07-29T02:21:37.072Z,1.30
2022-07-29T02:24:05.991Z,1.30
2022-07-29T02:26:35.114Z,1.50
2022-07-29T02:29:03.401Z,1.40
2022-07-29T02:31:35.446Z,1.50
2022-07-29T02:34:06.722Z,1.50
2022-07-29T02:36:35.204Z,1.40
2022-07-29T02:39:04.389Z,1.50
2022-07-29T02:41:41.185Z,1.40
2022-07-29T02:44:31.250Z,1.20
2022-07-29T02:47:20.313Z,1.40
2022-07-29T02:50:03.784Z,1.50
2022-07-29T02:52:38.989Z,1.40
2022-07-29T02:55:11.763Z,1.50
2022-07-29T02:58:00.152Z,1.60
2022-07-29T03:00:31.121Z,1.60
2022-07-29T03:03:03.035Z,1.50
2022-07-29T03:05:31.967Z,1.20
2022-07-29T03:08:04.848Z,2.20
2022-07-29T03:10:33.812Z,1.60
2022-07-29T03:13:02.503Z,1.20
2022-07-29T03:15:30.428Z,1.30
2022-07-29T03:17:59.457Z,1.10
2022-07-29T03:20:27.386Z,1.20
2022-07-29T03:22:54.956Z,1.30
2022-07-29T03:25:22.642Z,0.90
2022-07-29T03:27:50.084Z,1.10
2022-07-29T03:30:21.769Z,1.10
2022-07-29T03:32:52.047Z,1.30
2022-07-29T03:35:23.496Z,1.20
2022-07-29T03:37:50.945Z,1.10
2022-07-29T03:40:27.040Z,1.20
2022-07-29T03:42:56.397Z,0.90
2022-07-29T03:45:26.320Z,1.00
2022-07-29T03:48:01.294Z,1.10
2022-07-29T03:50:31.563Z,1.00
2022-07-29T03:52:59.536Z,1.00
2022-07-29T03:55:30.161Z,1.00
2022-07-29T03:57:59.038Z,1.20
2022-07-29T04:00:28.322Z,1.10
2022-07-29T04:02:56.677Z,1.10
2022-07-29T04:05:24.288Z,1.10
2022-07-29T04:07:51.747Z,0.80
2022-07-29T04:10:30.182Z,0.70
2022-07-29T04:13:00.714Z,0.80
2022-07-29T04:15:31.514Z,0.90
2022-07-29T04:18:00.366Z,0.90
2022-07-29T04:20:28.107Z,5.80
2022-07-29T04:22:55.566Z,2.90
2022-07-29T04:25:23.254Z,1.40
2022-07-29T04:28:06.698Z,3.50
2022-07-29T04:30:35.513Z,1.50
2022-07-29T04:33:05.838Z,1.60
2022-07-29T04:35:38.965Z,0.90
2022-07-29T04:38:17.252Z,0.90
2022-07-29T04:40:44.911Z,1.90
2022-07-29T04:43:13.175Z,1.00
2022-07-29T04:45:43.189Z,0.80
2022-07-29T04:48:10.736Z,0.80
2022-07-29T04:50:41.908Z,0.80
2022-07-29T04:53:09.492Z,0.90
2022-07-29T04:55:37.390Z,1.20
2022-07-29T04:58:06.645Z,0.80
2022-07-29T05:00:35.489Z,1.30
2022-07-29T05:03:03.127Z,0.90
2022-07-29T05:05:30.810Z,1.50
2022-07-29T05:07:58.578Z,0.70
2022-07-29T05:10:26.339Z,0.70
2022-07-29T05:12:53.790Z,0.90
2022-07-29T05:15:21.356Z,0.70
2022-07-29T05:17:48.806Z,0.90
2022-07-29T05:20:16.219Z,0.60
2022-07-29T05:22:43.717Z,0.80
2022-07-29T05:25:11.388Z,0.60
2022-07-29T05:27:38.876Z,0.60
2022-07-29T05:30:07.013Z,0.50
2022-07-29T05:32:34.463Z,0.80
2022-07-29T05:35:02.105Z,0.70
2022-07-29T05:37:29.545Z,0.70
2022-07-29T05:39:58.996Z,0.70
2022-07-29T05:42:27.434Z,0.70
2022-07-29T05:44:54.912Z,0.70
2022-07-29T05:47:23.081Z,0.60
2022-07-29T05:49:52.088Z,0.70
2022-07-29T05:52:19.719Z,0.80
2022-07-29T05:54:47.392Z,0.70
2022-07-29T05:57:20.320Z,1.40
2022-07-29T05:59:48.083Z,0.60
2022-07-29T06:02:16.221Z,0.60
2022-07-29T06:04:44.435Z,0.70
2022-07-29T06:07:12.324Z,0.80
2022-07-29T06:09:39.923Z,0.50
2022-07-29T06:12:07.521Z,0.70
2022-07-29T06:14:36.367Z,1.00
2022-07-29T06:17:03.879Z,1.10
2022-07-29T06:19:31.508Z,0.50
2022-07-29T06:21:58.988Z,1.10
2022-07-29T06:24:26.445Z,0.70
2022-07-29T06:26:53.884Z,1.10
2022-07-29T06:29:21.428Z,0.80
2022-07-29T06:31:48.912Z,0.60
2022-07-29T06:34:17.377Z,0.80
2022-07-29T06:36:46.002Z,0.60
2022-07-29T06:39:13.726Z,0.70
2022-07-29T06:41:41.261Z,0.70
2022-07-29T06:44:08.760Z,0.60
2022-07-29T06:46:36.313Z,0.80
2022-07-29T06:49:05.272Z,0.80
2022-07-29T06:51:32.812Z,0.60
2022-07-29T06:54:03.246Z,0.70
2022-07-29T06:56:38.311Z,0.80
2022-07-29T06:59:09.608Z,0.70
2022-07-29T07:01:38.731Z,0.70
2022-07-29T07:04:06.734Z,0.80
2022-07-29T07:06:34.261Z,0.60
2022-07-29T07:09:02.040Z,0.60
2022-07-29T07:11:29.848Z,0.70
2022-07-29T07:14:02.610Z,1.00
2022-07-29T07:16:32.341Z,0.70
2022-07-29T07:19:00.847Z,0.70
2022-07-29T07:21:30.447Z,0.60
2022-07-29T07:23:59.252Z,0.90
2022-07-29T07:26:27.893Z,0.90
2022-07-29T07:28:55.579Z,0.90
2022-07-29T07:31:23.308Z,0.80
2022-07-29T07:33:50.801Z,0.70
2022-07-29T07:36:18.240Z,0.80
2022-07-29T07:38:45.815Z,0.70
2022-07-29T07:41:13.340Z,1.00
2022-07-29T07:43:40.857Z,0.80
2022-07-29T07:46:08.398Z,0.90
2022-07-29T07:48:37.308Z,1.00
2022-07-29T07:51:04.883Z,0.90
2022-07-29T07:53:32.537Z,1.50
2022-07-29T07:56:10.635Z,1.00
2022-07-29T07:58:39.579Z,1.50
2022-07-29T08:01:07.415Z,2.10
2022-07-29T08:03:35.316Z,0.80
2022-07-29T08:06:04.742Z,2.00
2022-07-29T08:08:32.489Z,1.60
2022-07-29T08:11:02.230Z,0.90
2022-07-29T08:13:33.852Z,0.80
2022-07-29T08:16:02.813Z,1.60
2022-07-29T08:18:31.999Z,1.60
2022-07-29T08:20:59.817Z,1.70
2022-07-29T08:23:32.955Z,1.10
2022-07-29T08:26:14.924Z,0.90
2022-07-29T08:28:46.646Z,0.90
2022-07-29T08:31:15.293Z,2.50
2022-07-29T08:33:43.477Z,1.50
2022-07-29T08:36:10.981Z,1.20
2022-07-29T08:38:38.449Z,0.80
2022-07-29T08:41:06.968Z,1.00
2022-07-29T08:43:38.120Z,1.20
2022-07-29T08:46:05.621Z,1.10
2022-07-29T08:48:34.403Z,1.00
2022-07-29T08:51:02.749Z,1.20
2022-07-29T08:53:33.243Z,2.10
2022-07-29T08:56:02.663Z,5.00
2022-07-29T08:58:36.878Z,2.50
2022-07-29T09:01:07.626Z,1.00
2022-07-29T09:03:42.694Z,1.60
2022-07-29T09:06:14.080Z,1.30
2022-07-29T09:08:42.059Z,0.90
2022-07-29T09:11:12.589Z,1.20
2022-07-29T09:13:40.832Z,1.10
2022-07-29T09:16:09.503Z,1.20
2022-07-29T09:18:42.843Z,1.00
2022-07-29T09:21:32.208Z,1.10
2022-07-29T09:24:16.760Z,1.10
2022-07-29T09:26:46.600Z,1.00
2022-07-29T09:29:19.169Z,1.30
2022-07-29T09:31:48.981Z,1.30
2022-07-29T09:34:22.250Z,1.40
2022-07-29T09:36:52.080Z,1.20
2022-07-29T09:39:35.738Z,1.80
2022-07-29T09:42:06.173Z,1.40
2022-07-29T09:44:50.919Z,1.90
2022-07-29T09:47:19.971Z,1.50
2022-07-29T09:50:03.471Z,1.70
2022-07-29T09:52:31.138Z,2.40
2022-07-29T09:55:09.600Z,2.30
2022-07-29T09:57:37.071Z,3.30
2022-07-29T10:00:12.341Z,2.00
2022-07-29T10:02:44.391Z,1.60
2022-07-29T10:05:36.575Z,4.30
2022-07-29T10:08:05.442Z,2.00
2022-07-29T10:10:35.322Z,1.50
2022-07-29T10:13:08.952Z,1.40
2022-07-29T10:15:44.151Z,1.30
2022-07-29T10:18:18.029Z,1.40
2022-07-29T10:20:46.600Z,4.30
2022-07-29T10:23:14.801Z,1.60
2022-07-29T10:25:46.210Z,1.80
2022-07-29T10:28:16.739Z,1.40
2022-07-29T10:30:46.763Z,1.60
2022-07-29T10:33:31.216Z,1.50
2022-07-29T10:36:25.277Z,1.20
2022-07-29T10:39:08.644Z,1.20
2022-07-29T10:42:09.184Z,1.20
2022-07-29T10:44:41.500Z,1.60
2022-07-29T10:47:20.616Z,1.40
2022-07-29T10:50:05.355Z,1.60
2022-07-29T10:52:53.660Z,1.70
2022-07-29T10:55:43.080Z,1.40
2022-07-29T10:58:20.858Z,1.50
2022-07-29T11:00:54.642Z,1.60
2022-07-29T11:03:57.473Z,1.10
2022-07-29T11:06:28.200Z,1.60
2022-07-29T11:09:20.225Z,1.30
2022-07-29T11:11:53.783Z,1.30
2022-07-29T11:14:54.174Z,1.40
2022-07-29T11:17:24.200Z,1.90
2022-07-29T11:19:52.859Z,1.40
2022-07-29T11:22:45.827Z,1.30
2022-07-29T11:25:19.453Z,1.30
2022-07-29T11:28:22.905Z,1.20
2022-07-29T11:30:55.983Z,1.50
2022-07-29T11:36:27.958Z,1.20
2022-07-29T11:39:36.336Z,1.30
2022-07-29T11:45:41.249Z,1.40
2022-07-29T11:48:27.879Z,1.60
2022-07-29T11:50:48.507Z,1.50
2022-07-29T11:53:17.201Z,1.70
2022-07-29T11:55:51.443Z,1.50
2022-07-29T11:58:32.574Z,1.50
2022-07-29T12:01:04.616Z,1.60
2022-07-29T12:03:35.873Z,1.60
2022-07-29T12:06:13.506Z,1.50
2022-07-29T12:08:45.415Z,1.50
2022-07-29T12:11:20.893Z,1.70
2022-07-29T12:13:51.292Z,1.50
2022-07-29T12:16:25.402Z,1.50
2022-07-29T12:19:05.913Z,1.60
2022-07-29T12:21:54.059Z,1.40
2022-07-29T12:24:26.830Z,1.70
2022-07-29T12:26:57.897Z,1.50
2022-07-29T12:29:33.623Z,1.70
2022-07-29T12:32:04.695Z,1.90
2022-07-29T12:34:33.103Z,1.40
2022-07-29T12:37:01.913Z,1.70
2022-07-29T12:39:29.580Z,1.60
2022-07-29T12:42:04.498Z,1.80
2022-07-29T12:44:49.943Z,1.90
2022-07-29T12:47:19.363Z,1.60
2022-07-29T12:49:48.444Z,1.50
2022-07-29T12:52:33.119Z,1.50
2022-07-29T12:55:01.980Z,2.00
2022-07-29T12:57:29.545Z,1.10
2022-07-29T13:00:14.070Z,1.20
2022-07-29T13:02:43.491Z,1.50
2022-07-29T13:05:13.504Z,1.40
2022-07-29T13:07:55.548Z,1.50
2022-07-29T13:10:26.282Z,1.50
2022-07-29T13:13:11.632Z,1.40
2022-07-29T13:15:43.908Z,1.60
2022-07-29T13:18:31.627Z,1.70
2022-07-29T13:21:12.813Z,2.00
2022-07-29T13:23:40.466Z,2.20
2022-07-29T13:26:10.564Z,2.20
2022-07-29T13:28:38.490Z,2.50
2022-07-29T13:31:06.103Z,2.50
2022-07-29T13:33:33.831Z,2.80
2022-07-29T13:36:01.369Z,2.90
2022-07-29T13:38:30.840Z,2.60
2022-07-29T13:40:59.550Z,3.00
2022-07-29T13:43:27.132Z,3.00
2022-07-29T13:45:54.794Z,2.70
2022-07-29T13:48:22.269Z,3.00
2022-07-29T13:50:49.848Z,2.80
2022-07-29T13:53:17.975Z,2.70
2022-07-29T13:55:46.071Z,3.10
2022-07-29T13:58:13.530Z,2.30
2022-07-29T14:00:40.997Z,4.30
2022-07-29T14:03:08.443Z,3.30
2022-07-29T14:05:35.894Z,3.50
2022-07-29T14:08:03.420Z,3.60
2022-07-29T14:10:31.025Z,4.30
2022-07-29T14:12:58.503Z,3.60
2022-07-29T14:15:26.155Z,4.10
2022-07-29T14:17:53.635Z,4.40
2022-07-29T14:20:21.192Z,4.00
2022-07-29T14:22:49.391Z,3.90
2022-07-29T14:25:17.770Z,3.50
2022-07-29T14:27:48.825Z,3.40
2022-07-29T14:30:16.281Z,4.30
2022-07-29T14:32:44.723Z,4.10
2022-07-29T14:35:12.950Z,3.90
2022-07-29T14:37:40.877Z,3.90
2022-07-29T14:40:10.324Z,4.40
2022-07-29T14:42:38.562Z,5.60
2022-07-29T14:45:08.926Z,5.50
2022-07-29T14:47:37.105Z,4.60
2022-07-29T14:50:05.839Z,5.10
2022-07-29T14:52:33.586Z,4.40
2022-07-29T14:55:01.474Z,4.60
2022-07-29T14:57:30.006Z,4.40
2022-07-29T14:59:57.433Z,4.10
2022-07-29T15:02:40.038Z,3.10
2022-07-29T15:05:12.434Z,3.60
2022-07-29T15:07:39.962Z,3.80
2022-07-29T15:10:07.635Z,3.00
2022-07-29T15:12:36.105Z,2.60
2022-07-29T15:15:03.995Z,2.60
2022-07-29T15:17:31.500Z,2.80
2022-07-29T15:19:59.117Z,2.20
2022-07-29T15:22:26.716Z,2.80
2022-07-29T15:24:54.252Z,2.60
2022-07-29T15:27:23.095Z,2.70
2022-07-29T15:29:50.595Z,3.40
2022-07-29T15:32:18.344Z,3.50
2022-07-29T15:34:45.889Z,3.90
2022-07-29T15:37:13.449Z,4.50
2022-07-29T15:39:41.451Z,4.10
2022-07-29T15:42:08.848Z,3.50
2022-07-29T15:44:36.376Z,4.60
2022-07-29T15:47:04.097Z,5.10
2022-07-29T15:49:47.037Z,5.10
2022-07-29T15:52:24.909Z,7.30
2022-07-29T15:54:55.160Z,6.20
2022-07-29T15:57:23.990Z,6.00
2022-07-29T15:59:52.401Z,5.60
2022-07-29T16:02:20.103Z,5.50
2022-07-29T16:04:47.688Z,5.70
2022-07-29T16:07:16.280Z,4.80
2022-07-29T16:09:48.093Z,6.40
2022-07-29T16:12:18.502Z,5.10
2022-07-29T16:14:46.063Z,7.00
2022-07-29T16:17:14.560Z,5.90
2022-07-29T16:19:44.415Z,6.90
2022-07-29T16:22:12.568Z,6.50
2022-07-29T16:24:40.213Z,8.20
2022-07-29T16:27:08.373Z,9.60
2022-07-29T16:29:36.941Z,6.70
2022-07-29T16:32:06.787Z,7.60
2022-07-29T16:34:34.669Z,6.80
2022-07-29T16:37:02.613Z,6.50
2022-07-29T16:39:30.374Z,6.60
2022-07-29T16:42:00.867Z,7.30
2022-07-29T16:44:29.851Z,9.20
2022-07-29T16:46:59.063Z,9.40
2022-07-29T16:49:28.239Z,7.70
2022-07-29T16:51:55.919Z,7.00
2022-07-29T16:54:23.493Z,7.30
2022-07-29T16:56:51.035Z,6.80
2022-07-29T16:59:18.555Z,6.40
2022-07-29T17:01:46.105Z,5.90
2022-07-29T17:04:14.982Z,5.60
2022-07-29T17:06:42.613Z,5.20
2022-07-29T17:09:11.578Z,4.70
2022-07-29T17:11:52.883Z,4.90
2022-07-29T17:14:24.748Z,4.20
2022-07-29T17:17:00.933Z,4.10
2022-07-29T17:19:35.072Z,4.10
2022-07-29T17:22:18.749Z,4.20
2022-07-29T17:24:48.029Z,3.90
2022-07-29T17:27:17.408Z,3.00
2022-07-29T17:29:45.580Z,3.20
2022-07-29T17:32:13.957Z,2.40
2022-07-29T17:34:42.858Z,2.60
2022-07-29T17:37:12.179Z,2.10
2022-07-29T17:39:41.158Z,2.10
2022-07-29T17:42:11.444Z,2.70
2022-07-29T17:44:39.868Z,2.20
2022-07-29T17:47:15.866Z,2.00
2022-07-29T17:49:45.395Z,2.50
2022-07-29T17:52:12.928Z,2.20
2022-07-29T17:54:40.370Z,1.60
2022-07-29T17:57:08.050Z,1.60
2022-07-29T17:59:35.496Z,1.60
2022-07-29T18:02:03.042Z,1.50
2022-07-29T18:04:31.660Z,1.30
2022-07-29T18:06:59.772Z,1.50
2022-07-29T18:09:27.708Z,1.70
2022-07-29T18:11:55.187Z,1.70
2022-07-29T18:14:22.736Z,1.40
2022-07-29T18:16:50.235Z,1.80
2022-07-29T18:19:17.690Z,1.40
2022-07-29T18:21:54.583Z,1.50
2022-07-29T18:24:25.806Z,1.30
2022-07-29T18:26:53.902Z,1.10
2022-07-29T18:29:21.608Z,1.10
2022-07-29T18:31:49.189Z,1.00
2022-07-29T18:34:16.889Z,1.30
2022-07-29T18:36:45.859Z,1.10
2022-07-29T18:39:20.696Z,0.90
2022-07-29T18:41:51.494Z,0.90
2022-07-29T18:44:21.748Z,1.10
2022-07-29T18:46:51.936Z,1.10
2022-07-29T18:49:19.950Z,1.10
2022-07-29T18:51:48.852Z,1.00
2022-07-29T18:54:17.615Z,1.20
2022-07-29T18:56:46.209Z,1.40
2022-07-29T18:59:19.786Z,2.30
2022-07-29T19:01:48.767Z,1.00
2022-07-29T19:04:17.736Z,1.10
2022-07-29T19:06:45.571Z,1.10
2022-07-29T19:09:13.119Z,1.30
2022-07-29T19:11:40.869Z,0.90
2022-07-29T19:14:08.520Z,1.10
2022-07-29T19:16:36.198Z,1.00
2022-07-29T19:19:03.934Z,0.80
2022-07-29T19:21:31.383Z,0.90
2022-07-29T19:23:59.461Z,0.90
2022-07-29T19:26:29.565Z,1.10
2022-07-29T19:28:57.014Z,1.40
2022-07-29T19:31:24.582Z,1.50
2022-07-29T19:33:52.142Z,1.30
2022-07-29T19:36:19.638Z,1.10
2022-07-29T19:38:47.093Z,1.00
2022-07-29T19:41:17.028Z,1.00
2022-07-29T19:43:51.208Z,1.10
2022-07-29T19:46:23.881Z,1.00
2022-07-29T19:48:52.904Z,1.10
2022-07-29T19:51:21.548Z,1.10
2022-07-29T19:53:50.645Z,1.10
2022-07-29T19:56:18.151Z,0.80
2022-07-29T19:58:46.327Z,1.00
2022-07-29T20:01:16.792Z,0.90
2022-07-29T20:03:44.941Z,1.20
2022-07-29T20:06:12.795Z,1.10
2022-07-29T20:08:40.491Z,1.20
2022-07-29T20:11:07.999Z,1.20
2022-07-29T20:13:35.512Z,1.10
2022-07-29T20:16:06.403Z,0.90
2022-07-29T20:18:34.661Z,1.00
2022-07-29T20:21:03.577Z,1.00
2022-07-29T20:23:33.393Z,1.10
2022-07-29T20:26:01.570Z,0.80
2022-07-29T20:28:29.067Z,1.20
2022-07-29T20:30:56.683Z,0.80
2022-07-29T20:33:24.310Z,1.00
2022-07-29T20:35:51.921Z,1.00
2022-07-29T20:38:19.309Z,1.00
2022-07-29T20:40:46.831Z,0.70
2022-07-29T20:43:14.319Z,0.90
2022-07-29T20:45:41.867Z,1.00
2022-07-29T20:48:10.423Z,1.00
2022-07-29T20:50:37.889Z,1.20
2022-07-29T20:53:05.372Z,0.90
2022-07-29T20:55:32.908Z,1.10
2022-07-29T20:58:00.345Z,1.10
2022-07-29T21:00:28.740Z,1.00
2022-07-29T21:02:56.418Z,1.00
2022-07-29T21:05:24.365Z,1.20
2022-07-29T21:07:55.425Z,1.30
2022-07-29T21:10:25.795Z,1.10
2022-07-29T21:12:53.301Z,0.90
2022-07-29T21:15:21.854Z,1.00
2022-07-29T21:17:49.389Z,0.80
2022-07-29T21:20:19.186Z,1.00
2022-07-29T21:22:46.692Z,0.80
2022-07-29T21:25:14.241Z,1.00
2022-07-29T21:27:57.734Z,1.00
2022-07-29T21:30:25.202Z,0.90
2022-07-29T21:32:52.783Z,0.90
2022-07-29T21:36:01.996Z,1.10
2022-07-29T21:38:08.029Z,1.10
2022-07-29T21:40:35.548Z,1.00
2022-07-29T21:43:03.129Z,0.80
2022-07-29T21:45:30.556Z,0.90
2022-07-29T21:47:58.020Z,0.80
2022-07-29T21:50:25.553Z,0.80
2022-07-29T21:52:53.354Z,0.90
2022-07-29T21:55:20.924Z,0.90
2022-07-29T21:57:50.192Z,0.80
2022-07-29T22:00:17.723Z,0.90
2022-07-29T22:02:45.322Z,0.80
2022-07-29T22:05:13.970Z,0.80
2022-07-29T22:07:54.313Z,1.00
2022-07-29T22:10:28.211Z,0.80
2022-07-29T22:12:58.323Z,0.90
2022-07-29T22:15:27.051Z,0.80
2022-07-29T22:17:54.871Z,0.70
2022-07-29T22:20:22.802Z,0.50
2022-07-29T22:22:50.278Z,0.70
2022-07-29T22:25:17.921Z,0.90
2022-07-29T22:27:45.955Z,0.80
2022-07-29T22:30:13.737Z,0.80
2022-07-29T22:32:41.291Z,0.90
2022-07-29T22:35:09.068Z,0.90
2022-07-29T22:37:36.688Z,0.90
2022-07-29T22:40:05.024Z,1.00
2022-07-29T22:42:33.790Z,0.80
2022-07-29T22:45:01.859Z,1.00
2022-07-29T22:47:46.680Z,0.90
2022-07-29T22:50:16.997Z,0.70
2022-07-29T22:52:45.668Z,0.80
2022-07-29T22:55:14.466Z,0.80
2022-07-29T22:57:42.095Z,0.70
2022-07-29T23:00:10.447Z,0.70
2022-07-29T23:02:38.102Z,1.00
2022-07-29T23:05:06.728Z,0.80
2022-07-29T23:07:34.863Z,0.70
2022-07-29T23:10:02.887Z,0.80
2022-07-29T23:12:30.337Z,1.00
2022-07-29T23:14:57.890Z,0.60
2022-07-29T23:17:25.409Z,0.80
2022-07-29T23:19:52.873Z,0.80
2022-07-29T23:22:20.333Z,0.70
2022-07-29T23:24:47.810Z,0.60
2022-07-29T23:27:15.277Z,0.70
2022-07-29T23:29:42.762Z,1.30
2022-07-29T23:32:10.206Z,0.70
2022-07-29T23:34:37.812Z,0.80
2022-07-29T23:37:05.594Z,0.70
2022-07-29T23:39:33.044Z,0.70
2022-07-29T23:42:00.617Z,0.80
2022-07-29T23:44:28.116Z,0.80
2022-07-29T23:46:55.756Z,0.60
2022-07-29T23:49:23.254Z,0.80
2022-07-29T23:51:50.770Z,0.80
2022-07-29T23:54:18.226Z,0.80
2022-07-29T23:56:45.684Z,0.80
2022-07-29T23:59:14.126Z,0.60
